sensor_id;sensor_type;location;lat;lon;timestamp;P1;durP1;ratioP1;P2;durP2;ratioP2
7162;SDS011;3623;47.098;15.446;2023-04-09T00:00:20;28.80;;;24.20;;
7162;SDS011;3623;47.098;15.446;2023-04-09T00:02:49;26.15;;;23.30;;
7162;SDS011;3623;47.098;15.446;2023-04-09T00:05:17;28.30;;;23.42;;
7162;SDS011;3623;47.098;15.446;2023-04-09T00:07:46;27.77;;;24.20;;
7162;SDS011;3623;47.098;15.446;2023-04-09T00:10:14;23.60;;;21.05;;
7162;SDS011;3623;47.098;15.446;2023-04-09T00:12:44;24.17;;;20.40;;
7162;SDS011;3623;47.098;15.446;2023-04-09T00:15:12;27.75;;;23.65;;
7162;SDS011;3623;47.098;15.446;2023-04-09T00:17:41;26.25;;;22.95;;
7162;SDS011;3623;47.098;15.446;2023-04-09T00:20:09;25.15;;;22.45;;
7162;SDS011;3623;47.098;15.446;2023-04-09T00:22:38;26.05;;;21.40;;
7162;SDS011;3623;47.098;15.446;2023-04-09T00:25:06;23.48;;;20.27;;
7162;SDS011;3623;47.098;15.446;2023-04-09T00:27:35;27.30;;;23.88;;
7162;SDS011;3623;47.098;15.446;2023-04-09T00:30:06;22.45;;;20.15;;
7162;SDS011;3623;47.098;15.446;2023-04-09T00:32:34;27.98;;;21.88;;
7162;SDS011;3623;47.098;15.446;2023-04-09T00:35:03;27.27;;;22.30;;
7162;SDS011;3623;47.098;15.446;2023-04-09T00:37:31;26.35;;;21.90;;
7162;SDS011;3623;47.098;15.446;2023-04-09T00:40:00;24.45;;;21.55;;
7162;SDS011;3623;47.098;15.446;2023-04-09T00:42:30;26.77;;;22.73;;
7162;SDS011;3623;47.098;15.446;2023-04-09T00:44:58;27.23;;;21.35;;
7162;SDS011;3623;47.098;15.446;2023-04-09T00:47:28;25.23;;;22.50;;
7162;SDS011;3623;47.098;15.446;2023-04-09T00:49:57;24.38;;;20.40;;
7162;SDS011;3623;47.098;15.446;2023-04-09T00:52:25;28.10;;;22.55;;
7162;SDS011;3623;47.098;15.446;2023-04-09T00:54:55;25.35;;;22.10;;
7162;SDS011;3623;47.098;15.446;2023-04-09T00:57:24;28.42;;;22.52;;
7162;SDS011;3623;47.098;15.446;2023-04-09T00:59:52;24.27;;;20.77;;
7162;SDS011;3623;47.098;15.446;2023-04-09T01:02:21;26.05;;;21.38;;
7162;SDS011;3623;47.098;15.446;2023-04-09T01:04:51;25.92;;;21.20;;
7162;SDS011;3623;47.098;15.446;2023-04-09T01:07:21;26.88;;;22.83;;
7162;SDS011;3623;47.098;15.446;2023-04-09T01:09:52;29.10;;;21.13;;
7162;SDS011;3623;47.098;15.446;2023-04-09T01:12:24;23.77;;;20.33;;
7162;SDS011;3623;47.098;15.446;2023-04-09T01:14:55;23.85;;;19.70;;
7162;SDS011;3623;47.098;15.446;2023-04-09T01:17:43;22.65;;;19.52;;
7162;SDS011;3623;47.098;15.446;2023-04-09T01:20:13;25.23;;;20.10;;
7162;SDS011;3623;47.098;15.446;2023-04-09T01:22:48;23.80;;;19.95;;
7162;SDS011;3623;47.098;15.446;2023-04-09T01:25:28;23.98;;;20.05;;
7162;SDS011;3623;47.098;15.446;2023-04-09T01:28:16;24.10;;;19.88;;
7162;SDS011;3623;47.098;15.446;2023-04-09T01:30:47;24.00;;;21.50;;
7162;SDS011;3623;47.098;15.446;2023-04-09T01:33:16;26.25;;;20.05;;
7162;SDS011;3623;47.098;15.446;2023-04-09T01:35:45;20.83;;;18.25;;
7162;SDS011;3623;47.098;15.446;2023-04-09T01:38:15;23.63;;;20.90;;
7162;SDS011;3623;47.098;15.446;2023-04-09T01:40:45;23.80;;;20.25;;
7162;SDS011;3623;47.098;15.446;2023-04-09T01:43:15;22.25;;;19.92;;
7162;SDS011;3623;47.098;15.446;2023-04-09T01:45:44;24.70;;;18.92;;
7162;SDS011;3623;47.098;15.446;2023-04-09T01:48:14;22.17;;;19.77;;
7162;SDS011;3623;47.098;15.446;2023-04-09T01:50:42;23.70;;;19.95;;
7162;SDS011;3623;47.098;15.446;2023-04-09T01:53:11;23.35;;;18.80;;
7162;SDS011;3623;47.098;15.446;2023-04-09T01:55:40;21.63;;;19.20;;
7162;SDS011;3623;47.098;15.446;2023-04-09T01:58:08;20.70;;;18.00;;
7162;SDS011;3623;47.098;15.446;2023-04-09T02:00:38;22.13;;;18.65;;
7162;SDS011;3623;47.098;15.446;2023-04-09T02:03:09;22.08;;;19.15;;
7162;SDS011;3623;47.098;15.446;2023-04-09T02:05:39;22.30;;;18.38;;
7162;SDS011;3623;47.098;15.446;2023-04-09T02:08:09;19.23;;;15.90;;
7162;SDS011;3623;47.098;15.446;2023-04-09T02:10:38;20.80;;;18.58;;
7162;SDS011;3623;47.098;15.446;2023-04-09T02:13:08;27.70;;;19.42;;
7162;SDS011;3623;47.098;15.446;2023-04-09T02:15:39;21.58;;;17.45;;
7162;SDS011;3623;47.098;15.446;2023-04-09T02:18:19;24.67;;;17.98;;
7162;SDS011;3623;47.098;15.446;2023-04-09T02:20:48;25.17;;;19.05;;
7162;SDS011;3623;47.098;15.446;2023-04-09T02:23:16;23.23;;;19.63;;
7162;SDS011;3623;47.098;15.446;2023-04-09T02:25:44;21.38;;;17.98;;
7162;SDS011;3623;47.098;15.446;2023-04-09T02:28:14;23.88;;;20.73;;
7162;SDS011;3623;47.098;15.446;2023-04-09T02:30:43;24.63;;;19.15;;
7162;SDS011;3623;47.098;15.446;2023-04-09T02:33:12;20.45;;;17.88;;
7162;SDS011;3623;47.098;15.446;2023-04-09T02:35:40;19.95;;;17.55;;
7162;SDS011;3623;47.098;15.446;2023-04-09T02:38:09;22.77;;;19.42;;
7162;SDS011;3623;47.098;15.446;2023-04-09T02:40:38;25.00;;;18.60;;
7162;SDS011;3623;47.098;15.446;2023-04-09T02:43:06;24.55;;;19.63;;
7162;SDS011;3623;47.098;15.446;2023-04-09T02:45:35;21.20;;;17.75;;
7162;SDS011;3623;47.098;15.446;2023-04-09T02:48:05;20.10;;;17.88;;
7162;SDS011;3623;47.098;15.446;2023-04-09T02:50:33;20.27;;;17.80;;
7162;SDS011;3623;47.098;15.446;2023-04-09T02:53:02;22.83;;;19.67;;
7162;SDS011;3623;47.098;15.446;2023-04-09T02:55:30;23.80;;;19.40;;
7162;SDS011;3623;47.098;15.446;2023-04-09T02:57:58;24.55;;;19.73;;
7162;SDS011;3623;47.098;15.446;2023-04-09T03:00:27;21.77;;;19.45;;
7162;SDS011;3623;47.098;15.446;2023-04-09T03:02:56;21.45;;;19.23;;
7162;SDS011;3623;47.098;15.446;2023-04-09T03:05:26;22.08;;;18.08;;
7162;SDS011;3623;47.098;15.446;2023-04-09T03:07:54;22.30;;;18.92;;
7162;SDS011;3623;47.098;15.446;2023-04-09T03:10:23;23.60;;;21.30;;
7162;SDS011;3623;47.098;15.446;2023-04-09T03:12:51;21.98;;;19.38;;
7162;SDS011;3623;47.098;15.446;2023-04-09T03:15:20;27.15;;;19.48;;
7162;SDS011;3623;47.098;15.446;2023-04-09T03:17:48;22.35;;;20.00;;
7162;SDS011;3623;47.098;15.446;2023-04-09T03:20:16;22.55;;;20.20;;
7162;SDS011;3623;47.098;15.446;2023-04-09T03:22:46;25.10;;;20.48;;
7162;SDS011;3623;47.098;15.446;2023-04-09T03:25:15;25.45;;;20.73;;
7162;SDS011;3623;47.098;15.446;2023-04-09T03:27:45;22.10;;;19.00;;
7162;SDS011;3623;47.098;15.446;2023-04-09T03:30:13;23.30;;;19.17;;
7162;SDS011;3623;47.098;15.446;2023-04-09T03:32:41;20.40;;;18.02;;
7162;SDS011;3623;47.098;15.446;2023-04-09T03:35:10;22.17;;;19.77;;
7162;SDS011;3623;47.098;15.446;2023-04-09T03:37:38;23.20;;;19.00;;
7162;SDS011;3623;47.098;15.446;2023-04-09T03:40:09;23.85;;;19.10;;
7162;SDS011;3623;47.098;15.446;2023-04-09T03:42:37;21.10;;;17.23;;
7162;SDS011;3623;47.098;15.446;2023-04-09T03:45:06;24.20;;;18.85;;
7162;SDS011;3623;47.098;15.446;2023-04-09T03:47:34;18.92;;;16.90;;
7162;SDS011;3623;47.098;15.446;2023-04-09T03:50:03;22.92;;;17.50;;
7162;SDS011;3623;47.098;15.446;2023-04-09T03:52:31;19.42;;;17.05;;
7162;SDS011;3623;47.098;15.446;2023-04-09T03:55:01;22.75;;;19.63;;
7162;SDS011;3623;47.098;15.446;2023-04-09T03:57:31;21.08;;;18.90;;
7162;SDS011;3623;47.098;15.446;2023-04-09T04:00:00;22.17;;;18.92;;
7162;SDS011;3623;47.098;15.446;2023-04-09T04:02:29;23.10;;;19.58;;
7162;SDS011;3623;47.098;15.446;2023-04-09T04:04:57;22.30;;;18.92;;
7162;SDS011;3623;47.098;15.446;2023-04-09T04:07:26;21.75;;;18.58;;
7162;SDS011;3623;47.098;15.446;2023-04-09T04:09:54;20.25;;;17.02;;
7162;SDS011;3623;47.098;15.446;2023-04-09T04:12:23;18.92;;;16.85;;
7162;SDS011;3623;47.098;15.446;2023-04-09T04:14:52;18.00;;;16.17;;
7162;SDS011;3623;47.098;15.446;2023-04-09T04:17:21;20.50;;;17.05;;
7162;SDS011;3623;47.098;15.446;2023-04-09T04:19:49;23.90;;;18.60;;
7162;SDS011;3623;47.098;15.446;2023-04-09T04:22:18;18.63;;;16.63;;
7162;SDS011;3623;47.098;15.446;2023-04-09T04:24:46;19.90;;;16.30;;
7162;SDS011;3623;47.098;15.446;2023-04-09T04:27:16;19.45;;;17.35;;
7162;SDS011;3623;47.098;15.446;2023-04-09T04:29:44;19.33;;;16.65;;
7162;SDS011;3623;47.098;15.446;2023-04-09T04:32:14;21.30;;;16.60;;
7162;SDS011;3623;47.098;15.446;2023-04-09T04:34:42;18.23;;;16.30;;
7162;SDS011;3623;47.098;15.446;2023-04-09T04:37:12;17.08;;;15.07;;
7162;SDS011;3623;47.098;15.446;2023-04-09T04:39:40;18.17;;;14.73;;
7162;SDS011;3623;47.098;15.446;2023-04-09T04:42:08;15.38;;;13.60;;
7162;SDS011;3623;47.098;15.446;2023-04-09T04:44:37;17.40;;;14.30;;
7162;SDS011;3623;47.098;15.446;2023-04-09T04:47:05;18.45;;;15.18;;
7162;SDS011;3623;47.098;15.446;2023-04-09T04:49:35;16.45;;;14.75;;
7162;SDS011;3623;47.098;15.446;2023-04-09T04:52:04;15.35;;;13.75;;
7162;SDS011;3623;47.098;15.446;2023-04-09T04:54:32;17.40;;;15.52;;
7162;SDS011;3623;47.098;15.446;2023-04-09T04:57:01;16.30;;;14.43;;
7162;SDS011;3623;47.098;15.446;2023-04-09T04:59:29;17.17;;;14.98;;
7162;SDS011;3623;47.098;15.446;2023-04-09T05:01:58;17.27;;;15.57;;
7162;SDS011;3623;47.098;15.446;2023-04-09T05:04:26;16.95;;;14.48;;
7162;SDS011;3623;47.098;15.446;2023-04-09T05:06:56;18.15;;;14.60;;
7162;SDS011;3623;47.098;15.446;2023-04-09T05:09:24;20.40;;;14.75;;
7162;SDS011;3623;47.098;15.446;2023-04-09T05:11:53;16.83;;;15.07;;
7162;SDS011;3623;47.098;15.446;2023-04-09T05:14:21;19.13;;;16.60;;
7162;SDS011;3623;47.098;15.446;2023-04-09T05:16:49;19.50;;;15.77;;
7162;SDS011;3623;47.098;15.446;2023-04-09T05:19:18;17.52;;;15.73;;
7162;SDS011;3623;47.098;15.446;2023-04-09T05:21:46;18.48;;;16.48;;
7162;SDS011;3623;47.098;15.446;2023-04-09T05:24:16;19.23;;;16.92;;
7162;SDS011;3623;47.098;15.446;2023-04-09T05:26:44;17.42;;;15.63;;
7162;SDS011;3623;47.098;15.446;2023-04-09T05:29:13;17.65;;;15.75;;
7162;SDS011;3623;47.098;15.446;2023-04-09T05:31:41;15.77;;;14.02;;
7162;SDS011;3623;47.098;15.446;2023-04-09T05:34:10;19.02;;;16.35;;
7162;SDS011;3623;47.098;15.446;2023-04-09T05:36:38;18.83;;;16.52;;
7162;SDS011;3623;47.098;15.446;2023-04-09T05:39:07;21.00;;;15.77;;
7162;SDS011;3623;47.098;15.446;2023-04-09T05:41:36;16.10;;;14.60;;
7162;SDS011;3623;47.098;15.446;2023-04-09T05:44:06;15.25;;;13.57;;
7162;SDS011;3623;47.098;15.446;2023-04-09T05:46:34;16.13;;;13.13;;
7162;SDS011;3623;47.098;15.446;2023-04-09T05:49:02;15.32;;;13.80;;
7162;SDS011;3623;47.098;15.446;2023-04-09T05:51:31;15.63;;;13.98;;
7162;SDS011;3623;47.098;15.446;2023-04-09T05:54:00;15.43;;;13.93;;
7162;SDS011;3623;47.098;15.446;2023-04-09T05:56:28;15.65;;;14.00;;
7162;SDS011;3623;47.098;15.446;2023-04-09T05:58:58;17.17;;;14.40;;
7162;SDS011;3623;47.098;15.446;2023-04-09T06:01:26;16.38;;;13.75;;
7162;SDS011;3623;47.098;15.446;2023-04-09T06:03:54;18.20;;;16.13;;
7162;SDS011;3623;47.098;15.446;2023-04-09T06:06:23;21.10;;;14.45;;
7162;SDS011;3623;47.098;15.446;2023-04-09T06:08:51;18.50;;;15.20;;
7162;SDS011;3623;47.098;15.446;2023-04-09T06:11:19;15.98;;;14.27;;
7162;SDS011;3623;47.098;15.446;2023-04-09T06:13:48;16.48;;;14.05;;
7162;SDS011;3623;47.098;15.446;2023-04-09T06:16:17;13.40;;;12.13;;
7162;SDS011;3623;47.098;15.446;2023-04-09T06:18:46;16.02;;;13.45;;
7162;SDS011;3623;47.098;15.446;2023-04-09T06:21:18;15.95;;;13.35;;
7162;SDS011;3623;47.098;15.446;2023-04-09T06:23:47;15.52;;;12.98;;
7162;SDS011;3623;47.098;15.446;2023-04-09T06:26:17;15.38;;;13.77;;
7162;SDS011;3623;47.098;15.446;2023-04-09T06:28:45;15.98;;;13.85;;
7162;SDS011;3623;47.098;15.446;2023-04-09T06:31:14;15.23;;;13.43;;
7162;SDS011;3623;47.098;15.446;2023-04-09T06:33:43;16.27;;;14.27;;
7162;SDS011;3623;47.098;15.446;2023-04-09T06:36:12;15.75;;;13.13;;
7162;SDS011;3623;47.098;15.446;2023-04-09T06:38:40;15.07;;;13.35;;
7162;SDS011;3623;47.098;15.446;2023-04-09T06:41:09;15.48;;;12.88;;
7162;SDS011;3623;47.098;15.446;2023-04-09T06:43:38;16.05;;;13.70;;
7162;SDS011;3623;47.098;15.446;2023-04-09T06:46:07;14.48;;;13.02;;
7162;SDS011;3623;47.098;15.446;2023-04-09T06:48:35;12.88;;;11.52;;
7162;SDS011;3623;47.098;15.446;2023-04-09T06:51:06;17.10;;;15.10;;
7162;SDS011;3623;47.098;15.446;2023-04-09T06:53:34;17.48;;;14.00;;
7162;SDS011;3623;47.098;15.446;2023-04-09T06:56:03;13.05;;;11.75;;
7162;SDS011;3623;47.098;15.446;2023-04-09T06:58:31;19.05;;;15.48;;
7162;SDS011;3623;47.098;15.446;2023-04-09T07:01:00;15.88;;;13.98;;
7162;SDS011;3623;47.098;15.446;2023-04-09T07:03:28;15.55;;;13.90;;
7162;SDS011;3623;47.098;15.446;2023-04-09T07:05:57;16.90;;;14.30;;
7162;SDS011;3623;47.098;15.446;2023-04-09T07:08:26;15.93;;;13.90;;
7162;SDS011;3623;47.098;15.446;2023-04-09T07:10:55;17.17;;;13.77;;
7162;SDS011;3623;47.098;15.446;2023-04-09T07:13:23;17.35;;;13.02;;
7162;SDS011;3623;47.098;15.446;2023-04-09T07:15:51;14.77;;;13.18;;
7162;SDS011;3623;47.098;15.446;2023-04-09T07:18:19;16.88;;;13.70;;
7162;SDS011;3623;47.098;15.446;2023-04-09T07:20:47;14.60;;;13.10;;
7162;SDS011;3623;47.098;15.446;2023-04-09T07:23:15;15.07;;;13.50;;
7162;SDS011;3623;47.098;15.446;2023-04-09T07:25:45;14.70;;;13.30;;
7162;SDS011;3623;47.098;15.446;2023-04-09T07:28:13;14.20;;;12.85;;
7162;SDS011;3623;47.098;15.446;2023-04-09T07:30:41;15.40;;;13.45;;
7162;SDS011;3623;47.098;15.446;2023-04-09T07:33:10;13.20;;;11.95;;
7162;SDS011;3623;47.098;15.446;2023-04-09T07:35:38;13.30;;;12.05;;
7162;SDS011;3623;47.098;15.446;2023-04-09T07:38:06;12.70;;;11.45;;
7162;SDS011;3623;47.098;15.446;2023-04-09T07:40:34;11.35;;;10.15;;
7162;SDS011;3623;47.098;15.446;2023-04-09T07:43:04;12.20;;;10.85;;
7162;SDS011;3623;47.098;15.446;2023-04-09T07:45:32;11.80;;;10.48;;
7162;SDS011;3623;47.098;15.446;2023-04-09T07:48:00;12.45;;;11.15;;
7162;SDS011;3623;47.098;15.446;2023-04-09T07:50:28;12.90;;;11.55;;
7162;SDS011;3623;47.098;15.446;2023-04-09T07:52:56;13.07;;;11.70;;
7162;SDS011;3623;47.098;15.446;2023-04-09T07:55:24;11.77;;;10.60;;
7162;SDS011;3623;47.098;15.446;2023-04-09T07:57:52;12.70;;;11.45;;
7162;SDS011;3623;47.098;15.446;2023-04-09T08:00:21;13.35;;;11.80;;
7162;SDS011;3623;47.098;15.446;2023-04-09T08:02:49;13.45;;;12.13;;
7162;SDS011;3623;47.098;15.446;2023-04-09T08:05:17;13.77;;;12.32;;
7162;SDS011;3623;47.098;15.446;2023-04-09T08:07:45;11.90;;;10.68;;
7162;SDS011;3623;47.098;15.446;2023-04-09T08:10:13;12.30;;;11.10;;
7162;SDS011;3623;47.098;15.446;2023-04-09T08:12:41;13.07;;;11.77;;
7162;SDS011;3623;47.098;15.446;2023-04-09T08:15:10;12.02;;;10.70;;
7162;SDS011;3623;47.098;15.446;2023-04-09T08:17:39;12.20;;;10.45;;
7162;SDS011;3623;47.098;15.446;2023-04-09T08:20:07;12.38;;;11.18;;
7162;SDS011;3623;47.098;15.446;2023-04-09T08:22:35;9.80;;;9.00;;
7162;SDS011;3623;47.098;15.446;2023-04-09T08:25:05;10.95;;;9.85;;
7162;SDS011;3623;47.098;15.446;2023-04-09T08:27:33;9.98;;;9.07;;
7162;SDS011;3623;47.098;15.446;2023-04-09T08:30:01;10.93;;;9.85;;
7162;SDS011;3623;47.098;15.446;2023-04-09T08:32:29;10.95;;;9.85;;
7162;SDS011;3623;47.098;15.446;2023-04-09T08:34:58;9.50;;;8.60;;
7162;SDS011;3623;47.098;15.446;2023-04-09T08:37:27;10.68;;;9.60;;
7162;SDS011;3623;47.098;15.446;2023-04-09T08:39:54;11.20;;;9.20;;
7162;SDS011;3623;47.098;15.446;2023-04-09T08:42:21;8.57;;;7.68;;
7162;SDS011;3623;47.098;15.446;2023-04-09T08:44:50;8.90;;;8.20;;
7162;SDS011;3623;47.098;15.446;2023-04-09T08:47:18;11.75;;;10.55;;
7162;SDS011;3623;47.098;15.446;2023-04-09T08:49:45;11.05;;;9.85;;
7162;SDS011;3623;47.098;15.446;2023-04-09T08:52:15;10.40;;;9.35;;
7162;SDS011;3623;47.098;15.446;2023-04-09T08:54:46;10.30;;;9.27;;
7162;SDS011;3623;47.098;15.446;2023-04-09T08:57:14;10.93;;;9.75;;
7162;SDS011;3623;47.098;15.446;2023-04-09T08:59:43;13.30;;;11.73;;
7162;SDS011;3623;47.098;15.446;2023-04-09T09:02:12;10.50;;;9.43;;
7162;SDS011;3623;47.098;15.446;2023-04-09T09:04:44;10.35;;;9.27;;
7162;SDS011;3623;47.098;15.446;2023-04-09T09:07:13;10.05;;;9.05;;
7162;SDS011;3623;47.098;15.446;2023-04-09T09:09:52;9.45;;;8.55;;
7162;SDS011;3623;47.098;15.446;2023-04-09T09:12:30;10.77;;;9.68;;
7162;SDS011;3623;47.098;15.446;2023-04-09T09:14:59;10.60;;;9.57;;
7162;SDS011;3623;47.098;15.446;2023-04-09T09:17:27;10.07;;;9.13;;
7162;SDS011;3623;47.098;15.446;2023-04-09T09:19:55;11.60;;;10.43;;
7162;SDS011;3623;47.098;15.446;2023-04-09T09:22:24;12.65;;;11.30;;
7162;SDS011;3623;47.098;15.446;2023-04-09T09:24:53;12.82;;;11.63;;
7162;SDS011;3623;47.098;15.446;2023-04-09T09:27:31;13.00;;;11.70;;
7162;SDS011;3623;47.098;15.446;2023-04-09T09:30:01;12.45;;;11.18;;
7162;SDS011;3623;47.098;15.446;2023-04-09T09:32:29;12.60;;;11.30;;
7162;SDS011;3623;47.098;15.446;2023-04-09T09:34:59;11.55;;;9.65;;
7162;SDS011;3623;47.098;15.446;2023-04-09T09:37:28;11.00;;;10.07;;
7162;SDS011;3623;47.098;15.446;2023-04-09T09:39:58;10.70;;;9.70;;
7162;SDS011;3623;47.098;15.446;2023-04-09T09:42:26;11.15;;;10.00;;
7162;SDS011;3623;47.098;15.446;2023-04-09T09:44:54;12.48;;;11.18;;
7162;SDS011;3623;47.098;15.446;2023-04-09T09:47:23;14.38;;;12.35;;
7162;SDS011;3623;47.098;15.446;2023-04-09T09:49:52;11.98;;;10.75;;
7162;SDS011;3623;47.098;15.446;2023-04-09T09:52:23;11.80;;;10.60;;
7162;SDS011;3623;47.098;15.446;2023-04-09T09:54:52;12.82;;;11.65;;
7162;SDS011;3623;47.098;15.446;2023-04-09T09:57:24;9.27;;;8.38;;
7162;SDS011;3623;47.098;15.446;2023-04-09T09:59:54;11.85;;;10.23;;
7162;SDS011;3623;47.098;15.446;2023-04-09T10:02:26;10.43;;;9.43;;
7162;SDS011;3623;47.098;15.446;2023-04-09T10:04:58;10.07;;;9.18;;
7162;SDS011;3623;47.098;15.446;2023-04-09T10:07:28;8.88;;;7.55;;
7162;SDS011;3623;47.098;15.446;2023-04-09T10:09:57;9.45;;;8.65;;
7162;SDS011;3623;47.098;15.446;2023-04-09T10:12:27;9.55;;;8.70;;
7162;SDS011;3623;47.098;15.446;2023-04-09T10:14:56;7.43;;;6.82;;
7162;SDS011;3623;47.098;15.446;2023-04-09T10:17:28;9.55;;;8.75;;
7162;SDS011;3623;47.098;15.446;2023-04-09T10:19:58;6.93;;;6.38;;
7162;SDS011;3623;47.098;15.446;2023-04-09T10:22:28;8.35;;;7.65;;
7162;SDS011;3623;47.098;15.446;2023-04-09T10:24:58;8.25;;;7.55;;
7162;SDS011;3623;47.098;15.446;2023-04-09T10:27:28;8.07;;;7.38;;
7162;SDS011;3623;47.098;15.446;2023-04-09T10:29:57;7.78;;;7.07;;
7162;SDS011;3623;47.098;15.446;2023-04-09T10:32:25;6.80;;;6.18;;
7162;SDS011;3623;47.098;15.446;2023-04-09T10:34:55;6.78;;;6.28;;
7162;SDS011;3623;47.098;15.446;2023-04-09T10:37:25;7.28;;;6.55;;
7162;SDS011;3623;47.098;15.446;2023-04-09T10:39:54;6.20;;;5.70;;
7162;SDS011;3623;47.098;15.446;2023-04-09T10:42:23;6.63;;;6.07;;
7162;SDS011;3623;47.098;15.446;2023-04-09T10:45:04;6.00;;;5.50;;
7162;SDS011;3623;47.098;15.446;2023-04-09T10:47:33;6.07;;;5.65;;
7162;SDS011;3623;47.098;15.446;2023-04-09T10:50:15;11.77;;;7.80;;
7162;SDS011;3623;47.098;15.446;2023-04-09T10:52:44;5.75;;;5.35;;
7162;SDS011;3623;47.098;15.446;2023-04-09T10:58:11;6.28;;;5.78;;
7162;SDS011;3623;47.098;15.446;2023-04-09T11:00:41;5.70;;;5.30;;
7162;SDS011;3623;47.098;15.446;2023-04-09T11:06:00;5.10;;;4.70;;
7162;SDS011;3623;47.098;15.446;2023-04-09T11:08:30;6.30;;;5.80;;
7162;SDS011;3623;47.098;15.446;2023-04-09T11:10:59;5.35;;;4.95;;
7162;SDS011;3623;47.098;15.446;2023-04-09T11:13:28;6.13;;;5.63;;
7162;SDS011;3623;47.098;15.446;2023-04-09T11:15:59;6.10;;;5.60;;
7162;SDS011;3623;47.098;15.446;2023-04-09T11:18:30;6.45;;;5.93;;
7162;SDS011;3623;47.098;15.446;2023-04-09T11:21:00;6.35;;;5.80;;
7162;SDS011;3623;47.098;15.446;2023-04-09T11:23:29;6.30;;;5.80;;
7162;SDS011;3623;47.098;15.446;2023-04-09T11:25:58;6.13;;;5.72;;
7162;SDS011;3623;47.098;15.446;2023-04-09T11:28:27;7.18;;;6.50;;
7162;SDS011;3623;47.098;15.446;2023-04-09T11:30:55;6.20;;;5.70;;
7162;SDS011;3623;47.098;15.446;2023-04-09T11:33:31;7.47;;;6.88;;
7162;SDS011;3623;47.098;15.446;2023-04-09T11:36:00;5.82;;;5.43;;
7162;SDS011;3623;47.098;15.446;2023-04-09T11:38:29;6.57;;;6.07;;
7162;SDS011;3623;47.098;15.446;2023-04-09T11:40:58;6.68;;;6.15;;
7162;SDS011;3623;47.098;15.446;2023-04-09T11:43:26;9.98;;;6.45;;
7162;SDS011;3623;47.098;15.446;2023-04-09T11:45:55;70.70;;;10.18;;
7162;SDS011;3623;47.098;15.446;2023-04-09T11:48:24;5.70;;;5.20;;
7162;SDS011;3623;47.098;15.446;2023-04-09T11:50:53;5.32;;;4.93;;
7162;SDS011;3623;47.098;15.446;2023-04-09T11:53:22;7.33;;;5.50;;
7162;SDS011;3623;47.098;15.446;2023-04-09T11:55:51;4.20;;;3.90;;
7162;SDS011;3623;47.098;15.446;2023-04-09T11:58:20;4.60;;;4.30;;
7162;SDS011;3623;47.098;15.446;2023-04-09T12:00:51;5.40;;;4.77;;
7162;SDS011;3623;47.098;15.446;2023-04-09T12:03:24;5.03;;;4.73;;
7162;SDS011;3623;47.098;15.446;2023-04-09T12:05:54;4.67;;;4.37;;
7162;SDS011;3623;47.098;15.446;2023-04-09T12:08:22;5.13;;;4.73;;
7162;SDS011;3623;47.098;15.446;2023-04-09T12:10:50;5.50;;;5.20;;
7162;SDS011;3623;47.098;15.446;2023-04-09T12:13:18;5.63;;;5.20;;
7162;SDS011;3623;47.098;15.446;2023-04-09T12:15:47;5.80;;;5.40;;
7162;SDS011;3623;47.098;15.446;2023-04-09T12:18:14;5.40;;;5.00;;
7162;SDS011;3623;47.098;15.446;2023-04-09T12:20:42;6.20;;;5.70;;
7162;SDS011;3623;47.098;15.446;2023-04-09T12:23:12;4.80;;;4.40;;
7162;SDS011;3623;47.098;15.446;2023-04-09T12:25:40;4.30;;;4.00;;
7162;SDS011;3623;47.098;15.446;2023-04-09T12:28:11;4.70;;;4.30;;
7162;SDS011;3623;47.098;15.446;2023-04-09T12:30:39;5.47;;;5.07;;
7162;SDS011;3623;47.098;15.446;2023-04-09T12:33:07;6.27;;;5.77;;
7162;SDS011;3623;47.098;15.446;2023-04-09T12:35:34;5.90;;;5.40;;
7162;SDS011;3623;47.098;15.446;2023-04-09T12:38:02;5.55;;;5.15;;
7162;SDS011;3623;47.098;15.446;2023-04-09T12:40:31;6.75;;;6.13;;
7162;SDS011;3623;47.098;15.446;2023-04-09T12:42:59;6.38;;;5.82;;
7162;SDS011;3623;47.098;15.446;2023-04-09T12:45:26;6.00;;;5.50;;
7162;SDS011;3623;47.098;15.446;2023-04-09T12:47:53;6.38;;;5.85;;
7162;SDS011;3623;47.098;15.446;2023-04-09T12:50:21;5.75;;;5.35;;
7162;SDS011;3623;47.098;15.446;2023-04-09T12:52:48;5.90;;;5.50;;
7162;SDS011;3623;47.098;15.446;2023-04-09T12:55:15;5.57;;;5.07;;
7162;SDS011;3623;47.098;15.446;2023-04-09T12:57:44;6.43;;;5.85;;
7162;SDS011;3623;47.098;15.446;2023-04-09T13:00:12;4.75;;;4.45;;
7162;SDS011;3623;47.098;15.446;2023-04-09T13:02:40;8.88;;;5.63;;
7162;SDS011;3623;47.098;15.446;2023-04-09T13:05:07;5.65;;;5.15;;
7162;SDS011;3623;47.098;15.446;2023-04-09T13:07:35;6.13;;;5.65;;
7162;SDS011;3623;47.098;15.446;2023-04-09T13:10:02;7.80;;;5.97;;
7162;SDS011;3623;47.098;15.446;2023-04-09T13:12:30;5.93;;;5.43;;
7162;SDS011;3623;47.098;15.446;2023-04-09T13:14:58;7.10;;;6.50;;
7162;SDS011;3623;47.098;15.446;2023-04-09T13:17:26;7.57;;;5.38;;
7162;SDS011;3623;47.098;15.446;2023-04-09T13:19:53;5.97;;;5.47;;
7162;SDS011;3623;47.098;15.446;2023-04-09T13:22:21;5.88;;;5.47;;
7162;SDS011;3623;47.098;15.446;2023-04-09T13:24:48;6.40;;;5.90;;
7162;SDS011;3623;47.098;15.446;2023-04-09T13:27:16;4.85;;;4.45;;
7162;SDS011;3623;47.098;15.446;2023-04-09T13:29:44;6.50;;;5.88;;
7162;SDS011;3623;47.098;15.446;2023-04-09T13:32:12;5.95;;;5.55;;
7162;SDS011;3623;47.098;15.446;2023-04-09T13:34:42;6.78;;;4.95;;
7162;SDS011;3623;47.098;15.446;2023-04-09T13:37:09;5.65;;;5.25;;
7162;SDS011;3623;47.098;15.446;2023-04-09T13:39:36;5.72;;;5.20;;
7162;SDS011;3623;47.098;15.446;2023-04-09T13:42:04;4.53;;;4.10;;
7162;SDS011;3623;47.098;15.446;2023-04-09T13:44:31;4.65;;;4.35;;
7162;SDS011;3623;47.098;15.446;2023-04-09T13:46:59;4.70;;;4.18;;
7162;SDS011;3623;47.098;15.446;2023-04-09T13:49:28;4.68;;;4.38;;
7162;SDS011;3623;47.098;15.446;2023-04-09T13:51:55;4.88;;;4.47;;
7162;SDS011;3623;47.098;15.446;2023-04-09T13:54:23;4.88;;;4.50;;
7162;SDS011;3623;47.098;15.446;2023-04-09T13:56:51;4.95;;;4.55;;
7162;SDS011;3623;47.098;15.446;2023-04-09T13:59:18;5.15;;;4.75;;
7162;SDS011;3623;47.098;15.446;2023-04-09T14:01:46;3.67;;;3.47;;
7162;SDS011;3623;47.098;15.446;2023-04-09T14:04:13;3.70;;;3.50;;
7162;SDS011;3623;47.098;15.446;2023-04-09T14:06:42;4.03;;;3.70;;
7162;SDS011;3623;47.098;15.446;2023-04-09T14:09:09;3.90;;;3.60;;
7162;SDS011;3623;47.098;15.446;2023-04-09T14:11:37;8.35;;;4.25;;
7162;SDS011;3623;47.098;15.446;2023-04-09T14:14:04;4.30;;;4.00;;
7162;SDS011;3623;47.098;15.446;2023-04-09T14:16:32;4.90;;;4.50;;
7162;SDS011;3623;47.098;15.446;2023-04-09T14:19:00;5.30;;;4.90;;
7162;SDS011;3623;47.098;15.446;2023-04-09T14:21:27;6.05;;;5.55;;
7162;SDS011;3623;47.098;15.446;2023-04-09T14:23:56;4.78;;;4.45;;
7162;SDS011;3623;47.098;15.446;2023-04-09T14:26:23;4.18;;;3.88;;
7162;SDS011;3623;47.098;15.446;2023-04-09T14:28:51;4.22;;;3.80;;
7162;SDS011;3623;47.098;15.446;2023-04-09T14:31:19;4.13;;;3.75;;
7162;SDS011;3623;47.098;15.446;2023-04-09T14:33:46;4.40;;;4.03;;
7162;SDS011;3623;47.098;15.446;2023-04-09T14:36:13;4.40;;;4.00;;
7162;SDS011;3623;47.098;15.446;2023-04-09T14:38:41;4.68;;;4.28;;
7162;SDS011;3623;47.098;15.446;2023-04-09T14:41:09;4.60;;;4.10;;
7162;SDS011;3623;47.098;15.446;2023-04-09T14:43:37;6.18;;;4.18;;
7162;SDS011;3623;47.098;15.446;2023-04-09T14:46:04;3.65;;;3.35;;
7162;SDS011;3623;47.098;15.446;2023-04-09T14:48:35;3.75;;;3.45;;
7162;SDS011;3623;47.098;15.446;2023-04-09T14:51:03;3.47;;;3.17;;
7162;SDS011;3623;47.098;15.446;2023-04-09T14:53:31;4.30;;;4.00;;
7162;SDS011;3623;47.098;15.446;2023-04-09T14:55:58;3.97;;;3.65;;
7162;SDS011;3623;47.098;15.446;2023-04-09T14:58:27;4.13;;;3.80;;